createdAt,value
2018-04-11T00:00:13.340Z,13.95
2018-04-11T00:02:16.075Z,20.67
2018-04-11T00:04:18.820Z,14.43
2018-04-11T00:06:21.625Z,17.98
2018-04-11T00:08:24.379Z,17.52
2018-04-11T00:10:27.137Z,18.80
2018-04-11T00:12:29.901Z,17.08
2018-04-11T00:14:32.665Z,18.92
2018-04-11T00:16:35.465Z,15.38
2018-04-11T00:18:38.344Z,19.12
2018-04-11T00:20:41.074Z,16.92
2018-04-11T00:22:43.834Z,17.02
2018-04-11T00:24:46.570Z,18.58
2018-04-11T00:26:49.318Z,15.52
2018-04-11T00:28:52.078Z,16.65
2018-04-11T00:30:54.840Z,16.87
2018-04-11T00:32:57.612Z,17.85
2018-04-11T00:35:00.344Z,13.05
2018-04-11T00:37:03.087Z,17.05
2018-04-11T00:39:05.852Z,13.52
2018-04-11T00:41:08.596Z,14.45
2018-04-11T00:43:11.348Z,13.45
2018-04-11T00:45:14.126Z,16.42
2018-04-11T00:47:16.871Z,19.92
2018-04-11T00:51:25.698Z,18.35
2018-04-11T00:53:28.466Z,19.62
2018-04-11T00:55:31.287Z,13.32
2018-04-11T00:57:33.987Z,18.83
2018-04-11T00:59:36.749Z,19.12
2018-04-11T01:01:39.519Z,15.25
2018-04-11T01:03:42.292Z,17.15
2018-04-11T01:05:45.033Z,12.48
2018-04-11T01:07:47.770Z,18.80
2018-04-11T01:09:50.614Z,16.37
2018-04-11T01:11:53.347Z,20.60
2018-04-11T01:13:56.086Z,15.55
2018-04-11T01:15:58.933Z,18.52
2018-04-11T01:18:01.658Z,13.90
2018-04-11T01:20:04.378Z,12.63
2018-04-11T01:22:07.102Z,17.85
2018-04-11T01:24:09.838Z,16.90
2018-04-11T01:26:12.588Z,12.48
2018-04-11T01:28:15.311Z,16.75
2018-04-11T01:30:18.028Z,11.25
2018-04-11T01:32:20.894Z,15.90
2018-04-11T01:34:23.622Z,15.20
2018-04-11T01:36:26.342Z,19.02
2018-04-11T01:38:29.063Z,15.55
2018-04-11T01:40:31.951Z,13.85
2018-04-11T01:42:34.670Z,14.90
2018-04-11T01:44:37.401Z,15.73
2018-04-11T01:46:40.135Z,16.37
2018-04-11T01:48:42.864Z,13.55
2018-04-11T01:50:45.613Z,13.82
2018-04-11T01:52:48.369Z,14.85
2018-04-11T01:54:51.100Z,12.60
2018-04-11T01:56:53.824Z,15.23
2018-04-11T01:58:56.823Z,14.32
2018-04-11T02:00:59.558Z,13.23
2018-04-11T02:03:02.286Z,11.85
2018-04-11T02:05:05.065Z,11.40
2018-04-11T02:07:07.780Z,14.20
2018-04-11T02:09:10.503Z,14.25
2018-04-11T02:11:13.233Z,16.95
2018-04-11T02:13:15.994Z,14.30
2018-04-11T02:15:18.758Z,12.00
2018-04-11T02:17:21.478Z,13.77
2018-04-11T02:19:24.378Z,14.25
2018-04-11T02:21:27.107Z,12.98
2018-04-11T02:23:29.831Z,16.77
2018-04-11T02:25:32.552Z,15.55
2018-04-11T02:27:35.262Z,15.70
2018-04-11T02:29:37.995Z,12.50
2018-04-11T02:31:40.725Z,13.62
2018-04-11T02:33:43.715Z,13.50
2018-04-11T02:35:46.449Z,12.80
2018-04-11T02:37:49.172Z,17.67
2018-04-11T02:39:51.914Z,18.17
2018-04-11T02:41:54.654Z,16.70
2018-04-11T02:43:57.397Z,12.20
2018-04-11T02:46:00.144Z,16.12
2018-04-11T02:48:02.873Z,19.05
2018-04-11T02:50:05.623Z,11.68
2018-04-11T02:52:08.377Z,15.65
2018-04-11T02:54:11.108Z,13.55
2018-04-11T02:56:13.846Z,12.05
2018-04-11T02:58:16.870Z,14.80
2018-04-11T03:00:19.594Z,16.05
2018-04-11T03:02:22.320Z,14.68
2018-04-11T03:04:25.063Z,17.42
2018-04-11T03:06:27.789Z,17.33
2018-04-11T03:08:30.506Z,15.07
2018-04-11T03:10:33.344Z,16.12
2018-04-11T03:12:36.066Z,13.10
2018-04-11T03:14:38.775Z,15.13
2018-04-11T03:16:41.503Z,14.05
2018-04-11T03:18:44.223Z,14.07
2018-04-11T03:20:47.074Z,19.50
2018-04-11T03:22:49.792Z,27.10
2018-04-11T03:24:52.507Z,17.83
2018-04-11T03:26:55.230Z,16.40
2018-04-11T03:28:57.951Z,25.15
2018-04-11T03:31:00.966Z,19.62
2018-04-11T03:33:03.700Z,17.35
2018-04-11T03:35:06.431Z,13.55
2018-04-11T03:37:09.174Z,13.25
2018-04-11T03:39:11.912Z,17.25
2018-04-11T03:41:14.649Z,14.48
2018-04-11T03:43:17.385Z,15.23
2018-04-11T03:45:20.106Z,18.48
2018-04-11T03:47:23.134Z,20.73
2018-04-11T03:49:28.890Z,15.13
2018-04-11T03:51:31.751Z,15.23
2018-04-11T03:53:34.505Z,15.52
2018-04-11T03:55:37.271Z,14.48
2018-04-11T03:57:40.006Z,17.37
2018-04-11T03:59:42.731Z,16.12
2018-04-11T04:01:45.452Z,22.17
2018-04-11T04:03:48.179Z,19.42
2018-04-11T04:05:50.905Z,17.62
2018-04-11T04:07:53.647Z,16.85
2018-04-11T04:09:56.378Z,17.25
2018-04-11T04:11:59.117Z,20.37
2018-04-11T04:14:08.188Z,14.27
2018-04-11T04:16:17.158Z,14.02
2018-04-11T04:18:26.264Z,20.12
2018-04-11T04:20:29.942Z,17.05
2018-04-11T04:22:32.666Z,21.17
2018-04-11T04:24:35.391Z,15.98
2018-04-11T04:26:38.137Z,16.17
2018-04-11T04:28:40.842Z,15.82
2018-04-11T04:30:43.564Z,17.55
2018-04-11T04:32:46.344Z,14.45
2018-04-11T04:34:49.062Z,13.85
2018-04-11T04:36:51.780Z,16.95
2018-04-11T04:38:54.522Z,22.62
2018-04-11T04:40:57.271Z,16.10
2018-04-11T04:42:59.993Z,17.58
2018-04-11T04:45:02.730Z,16.87
2018-04-11T04:47:05.443Z,21.20
2018-04-11T04:49:08.175Z,20.27
2018-04-11T04:51:10.933Z,16.62
2018-04-11T04:53:14.345Z,19.80
2018-04-11T04:55:17.067Z,17.73
2018-04-11T04:57:19.821Z,17.95
2018-04-11T04:59:22.542Z,18.87
2018-04-11T05:01:25.281Z,14.57
2018-04-11T05:03:28.320Z,21.48
2018-04-11T05:05:31.057Z,24.52
2018-04-11T05:07:34.127Z,15.88
2018-04-11T05:09:36.886Z,22.13
2018-04-11T05:11:39.606Z,28.55
2018-04-11T05:13:42.322Z,16.17
2018-04-11T05:15:45.084Z,19.25
2018-04-11T05:17:47.866Z,21.17
2018-04-11T05:19:51.019Z,19.35
2018-04-11T05:21:53.702Z,21.05
2018-04-11T05:23:56.468Z,14.57
2018-04-11T05:25:59.205Z,17.48
2018-04-11T05:28:01.925Z,14.30
2018-04-11T05:30:04.643Z,24.87
2018-04-11T05:32:07.565Z,17.42
2018-04-11T05:34:10.308Z,18.12
2018-04-11T05:36:13.033Z,22.80
2018-04-11T05:38:16.077Z,14.57
2018-04-11T05:40:21.202Z,20.05
2018-04-11T05:42:24.196Z,16.30
2018-04-11T05:44:27.008Z,18.83
2018-04-11T05:46:29.819Z,18.83
2018-04-11T05:48:32.579Z,15.73
2018-04-11T05:50:35.511Z,16.02
2018-04-11T05:52:38.291Z,26.33
2018-04-11T05:54:41.054Z,18.20
2018-04-11T05:56:43.912Z,20.83
2018-04-11T05:58:46.731Z,20.12
2018-04-11T06:00:49.497Z,19.37
2018-04-11T06:02:54.759Z,21.42
2018-04-11T06:05:01.524Z,14.60
2018-04-11T06:09:27.541Z,21.17
2018-04-11T06:11:30.297Z,18.85
2018-04-11T06:13:33.198Z,18.02
2018-04-11T06:15:42.680Z,19.05
2018-04-11T06:17:45.495Z,19.75
2018-04-11T06:19:48.289Z,20.25
2018-04-11T06:21:51.074Z,25.90
2018-04-11T06:23:53.998Z,21.23
2018-04-11T06:25:57.203Z,22.45
2018-04-11T06:28:00.171Z,20.33
2018-04-11T06:30:03.016Z,21.15
2018-04-11T06:32:05.830Z,23.42
2018-04-11T06:34:08.650Z,22.95
2018-04-11T06:36:11.473Z,23.42
2018-04-11T06:38:14.302Z,19.40
2018-04-11T06:40:17.610Z,19.08
2018-04-11T06:42:20.398Z,21.40
2018-04-11T06:44:23.304Z,16.70
2018-04-11T06:46:26.169Z,18.05
2018-04-11T06:48:28.965Z,24.33
2018-04-11T06:50:32.021Z,19.87
2018-04-11T06:52:34.853Z,24.25
2018-04-11T06:54:37.812Z,20.20
2018-04-11T06:56:47.612Z,22.40
2018-04-11T06:58:50.459Z,27.15
2018-04-11T07:00:53.261Z,18.77
2018-04-11T07:02:56.058Z,26.40
2018-04-11T07:04:58.838Z,20.15
2018-04-11T07:07:01.662Z,21.35
2018-04-11T07:09:06.244Z,22.48
2018-04-11T07:11:09.709Z,21.87
2018-04-11T07:13:12.493Z,18.52
2018-04-11T07:15:16.201Z,18.30
2018-04-11T07:17:19.686Z,23.23
2018-04-11T07:19:22.474Z,20.70
2018-04-11T07:21:25.314Z,19.60
2018-04-11T07:23:28.115Z,20.35
2018-04-11T07:25:31.534Z,23.90
2018-04-11T07:27:34.333Z,25.08
2018-04-11T07:29:37.143Z,34.65
2018-04-11T07:31:39.947Z,20.15
2018-04-11T07:33:42.770Z,19.23
2018-04-11T07:35:45.602Z,22.25
2018-04-11T07:37:48.432Z,24.98
2018-04-11T07:39:51.230Z,23.58
2018-04-11T07:41:54.326Z,21.95
2018-04-11T07:43:57.145Z,25.33
2018-04-11T07:45:59.987Z,21.80
2018-04-11T07:48:02.783Z,28.27
2018-04-11T07:50:05.597Z,23.90
2018-04-11T07:52:08.491Z,27.55
2018-04-11T07:54:11.299Z,29.00
2018-04-11T07:56:14.052Z,22.83
2018-04-11T07:58:16.822Z,24.23
2018-04-11T08:00:20.106Z,20.73
2018-04-11T08:02:23.259Z,22.37
2018-04-11T08:04:26.093Z,22.92
2018-04-11T08:06:29.005Z,24.55
2018-04-11T08:08:31.871Z,26.45
2018-04-11T08:10:36.920Z,27.35
2018-04-11T08:12:39.754Z,25.23
2018-04-11T08:14:42.658Z,27.35
2018-04-11T08:16:45.502Z,28.65
2018-04-11T08:18:48.314Z,21.70
2018-04-11T08:20:51.273Z,38.03
2018-04-11T08:22:54.128Z,24.48
2018-04-11T08:24:57.063Z,21.23
2018-04-11T08:26:59.922Z,24.80
2018-04-11T08:29:02.762Z,24.92
2018-04-11T08:31:05.901Z,29.17
2018-04-11T08:33:08.768Z,21.55
2018-04-11T08:35:11.609Z,34.38
2018-04-11T08:37:14.445Z,24.17
2018-04-11T08:39:18.812Z,31.15
2018-04-11T08:41:21.650Z,25.23
2018-04-11T08:43:24.586Z,22.00
2018-04-11T08:45:27.412Z,27.87
2018-04-11T08:47:30.255Z,23.25
2018-04-11T08:49:33.100Z,20.88
2018-04-11T08:51:35.884Z,23.55
2018-04-11T08:53:38.676Z,20.80
2018-04-11T08:55:41.723Z,21.42
2018-04-11T08:57:44.682Z,20.25
2018-04-11T08:59:47.562Z,26.73
2018-04-11T09:01:50.401Z,24.35
2018-04-11T09:03:53.180Z,21.15
2018-04-11T09:05:55.965Z,20.40
2018-04-11T09:07:58.784Z,25.60
2018-04-11T09:10:01.593Z,24.02
2018-04-11T09:12:04.374Z,29.55
2018-04-11T09:14:07.323Z,21.25
2018-04-11T09:16:10.121Z,21.55
2018-04-11T09:18:12.906Z,22.73
2018-04-11T09:20:15.671Z,27.70
2018-04-11T09:22:18.467Z,19.17
2018-04-11T09:24:21.258Z,22.55
2018-04-11T09:26:24.041Z,23.58
2018-04-11T09:28:26.821Z,23.08
2018-04-11T09:30:29.592Z,22.20
2018-04-11T09:32:32.605Z,22.98
2018-04-11T09:34:35.472Z,21.33
2018-04-11T09:36:38.306Z,21.08
2018-04-11T09:38:41.132Z,18.33
2018-04-11T09:40:43.917Z,22.75
2018-04-11T09:42:46.774Z,23.35
2018-04-11T09:44:49.582Z,19.20
2018-04-11T09:46:52.381Z,23.23
2018-04-11T09:48:55.179Z,25.37
2018-04-11T09:50:58.185Z,21.90
2018-04-11T09:53:01.014Z,20.87
2018-04-11T09:55:03.792Z,20.67
2018-04-11T09:57:06.722Z,24.50
2018-04-11T09:59:09.560Z,17.75
2018-04-11T10:01:18.155Z,22.07
2018-04-11T10:03:21.820Z,20.42
2018-04-11T10:05:24.579Z,23.67
2018-04-11T10:07:27.439Z,35.13
2018-04-11T10:09:30.206Z,20.67
2018-04-11T10:11:32.994Z,24.42
2018-04-11T10:13:35.789Z,24.60
2018-04-11T10:15:38.587Z,28.85
2018-04-11T10:17:41.415Z,24.35
2018-04-11T10:19:44.182Z,24.92
2018-04-11T10:21:46.954Z,25.88
2018-04-11T10:23:49.742Z,25.58
2018-04-11T10:25:52.570Z,27.48
2018-04-11T10:27:55.414Z,26.75
2018-04-11T10:29:58.226Z,19.62
2018-04-11T10:32:01.446Z,24.73
2018-04-11T10:34:04.310Z,31.00
2018-04-11T10:36:07.150Z,33.67
2018-04-11T10:38:10.363Z,27.95
2018-04-11T10:40:13.241Z,25.15
2018-04-11T10:42:16.078Z,32.55
2018-04-11T10:44:18.942Z,31.98
2018-04-11T10:46:22.010Z,31.55
2018-04-11T10:48:25.790Z,26.92
2018-04-11T10:50:28.665Z,31.70
2018-04-11T10:52:31.533Z,28.98
2018-04-11T10:54:34.365Z,30.48
2018-04-11T10:56:45.038Z,28.75
2018-04-11T10:58:47.892Z,30.20
2018-04-11T11:00:50.957Z,30.40
2018-04-11T11:02:53.866Z,32.63
2018-04-11T11:04:56.737Z,33.28
2018-04-11T11:06:59.782Z,25.95
2018-04-11T11:09:02.907Z,36.22
2018-04-11T11:11:05.989Z,43.22
2018-04-11T11:13:08.927Z,31.87
2018-04-11T11:15:11.819Z,35.63
2018-04-11T11:17:14.859Z,26.62
2018-04-11T11:19:17.814Z,30.98
2018-04-11T11:21:20.747Z,26.85
2018-04-11T11:23:23.659Z,22.62
2018-04-11T11:25:26.526Z,34.75
2018-04-11T11:27:29.417Z,28.83
2018-04-11T11:29:32.401Z,27.20
2018-04-11T11:31:35.188Z,28.17
2018-04-11T11:33:38.025Z,28.27
2018-04-11T11:35:40.895Z,30.60
2018-04-11T11:37:43.769Z,29.67
2018-04-11T11:39:46.739Z,29.65
2018-04-11T11:41:49.554Z,31.30
2018-04-11T11:43:52.407Z,29.80
2018-04-11T11:45:55.305Z,30.15
2018-04-11T11:47:58.076Z,29.17
2018-04-11T11:50:00.930Z,33.97
2018-04-11T11:52:03.915Z,30.10
2018-04-11T11:54:06.633Z,35.50
2018-04-11T11:56:09.520Z,32.55
2018-04-11T11:58:12.360Z,31.33
2018-04-11T12:00:16.665Z,29.15
2018-04-11T12:02:20.663Z,23.87
2018-04-11T12:04:24.423Z,27.90
2018-04-11T12:06:27.397Z,28.05
2018-04-11T12:08:30.479Z,24.27
2018-04-11T12:10:33.358Z,28.52
2018-04-11T12:12:36.158Z,29.05
2018-04-11T12:14:38.978Z,38.45
2018-04-11T12:16:42.290Z,30.77
2018-04-11T12:18:45.112Z,27.13
2018-04-11T12:20:48.150Z,32.08
2018-04-11T12:22:50.982Z,20.10
2018-04-11T12:24:53.861Z,28.55
2018-04-11T12:26:56.743Z,26.77
2018-04-11T12:28:59.526Z,29.58
2018-04-11T12:31:02.387Z,24.30
2018-04-11T12:33:05.219Z,21.40
2018-04-11T12:35:07.979Z,21.30
2018-04-11T12:37:10.717Z,22.52
2018-04-11T12:39:14.366Z,22.60
2018-04-11T12:41:17.197Z,23.70
2018-04-11T12:43:20.006Z,26.48
2018-04-11T12:45:22.809Z,23.20
2018-04-11T12:47:25.613Z,22.62
2018-04-11T12:49:28.401Z,27.75
2018-04-11T12:51:31.196Z,24.63
2018-04-11T12:53:33.992Z,27.10
2018-04-11T12:55:36.944Z,22.15
2018-04-11T12:57:39.983Z,22.15
2018-04-11T12:59:42.790Z,22.23
2018-04-11T13:01:45.630Z,22.60
2018-04-11T13:03:48.532Z,22.17
2018-04-11T13:05:51.325Z,22.77
2018-04-11T13:07:54.117Z,19.75
2018-04-11T13:09:56.973Z,17.70
2018-04-11T13:11:59.758Z,23.27
2018-04-11T13:14:02.572Z,21.05
2018-04-11T13:16:05.374Z,24.67
2018-04-11T13:18:08.431Z,23.87
2018-04-11T13:20:11.266Z,25.08
2018-04-11T13:22:14.159Z,21.37
2018-04-11T13:24:17.071Z,19.25
2018-04-11T13:26:19.949Z,23.95
2018-04-11T13:28:22.806Z,23.27
2018-04-11T13:30:25.677Z,20.80
2018-04-11T13:32:28.507Z,25.02
2018-04-11T13:34:31.306Z,19.10
2018-04-11T13:36:34.097Z,21.10
2018-04-11T13:38:36.881Z,18.00
2018-04-11T13:40:39.723Z,22.48
2018-04-11T13:42:42.594Z,19.02
2018-04-11T13:44:45.442Z,15.57
2018-04-11T13:46:48.454Z,19.02
2018-04-11T13:48:51.274Z,18.55
2018-04-11T13:50:54.130Z,22.67
2018-04-11T13:52:56.966Z,19.67
2018-04-11T13:54:59.765Z,19.87
2018-04-11T13:57:02.590Z,26.98
2018-04-11T13:59:05.423Z,22.73
2018-04-11T14:01:08.265Z,20.27
2018-04-11T14:03:11.101Z,22.90
2018-04-11T14:05:13.953Z,21.33
2018-04-11T14:07:16.716Z,19.52
2018-04-11T14:09:19.521Z,18.05
2018-04-11T14:11:22.317Z,20.75
2018-04-11T14:13:25.135Z,20.17
2018-04-11T14:15:28.019Z,17.77
2018-04-11T14:17:30.884Z,20.85
2018-04-11T14:19:33.750Z,17.40
2018-04-11T14:21:36.618Z,21.33
2018-04-11T14:23:39.485Z,24.27
2018-04-11T14:25:42.446Z,20.02
2018-04-11T14:27:45.305Z,20.23
2018-04-11T14:29:48.202Z,21.02
2018-04-11T14:31:50.982Z,20.12
2018-04-11T14:33:53.779Z,17.20
2018-04-11T14:35:56.623Z,23.80
2018-04-11T14:37:59.432Z,17.42
2018-04-11T14:40:02.395Z,19.60
2018-04-11T14:42:05.246Z,15.85
2018-04-11T14:44:08.081Z,15.93
2018-04-11T14:46:10.873Z,24.00
2018-04-11T14:48:14.015Z,18.70
2018-04-11T14:50:16.876Z,20.40
2018-04-11T14:52:19.664Z,16.42
2018-04-11T14:54:22.622Z,15.00
2018-04-11T14:56:25.424Z,14.48
2018-04-11T14:58:28.245Z,19.50
2018-04-11T15:00:31.218Z,14.20
2018-04-11T15:02:34.070Z,16.90
2018-04-11T15:04:36.895Z,19.00
2018-04-11T15:06:39.699Z,18.98
2018-04-11T15:08:42.502Z,20.02
2018-04-11T15:10:45.306Z,18.35
2018-04-11T15:12:48.085Z,15.98
2018-04-11T15:14:50.930Z,15.27
2018-04-11T15:16:53.747Z,16.73
2018-04-11T15:18:56.571Z,16.15
2018-04-11T15:20:59.404Z,24.20
2018-04-11T15:23:02.302Z,21.08
2018-04-11T15:25:05.523Z,15.02
2018-04-11T15:27:08.399Z,17.35
2018-04-11T15:29:11.291Z,16.83
2018-04-11T15:31:14.255Z,20.40
2018-04-11T15:33:17.054Z,21.55
2018-04-11T15:35:19.828Z,11.30
2018-04-11T15:37:22.637Z,17.08
2018-04-11T15:39:25.425Z,15.07
2018-04-11T15:41:28.266Z,16.45
2018-04-11T15:43:31.113Z,15.35
2018-04-11T15:45:33.926Z,15.43
2018-04-11T15:47:36.706Z,15.05
2018-04-11T15:49:39.513Z,15.88
2018-04-11T15:51:42.362Z,13.62
2018-04-11T15:53:45.241Z,14.55
2018-04-11T15:55:48.133Z,11.82
2018-04-11T15:57:51.218Z,11.68
2018-04-11T15:59:54.092Z,20.62
2018-04-11T16:01:56.938Z,12.40
2018-04-11T16:03:59.745Z,15.52
2018-04-11T16:06:02.555Z,16.48
2018-04-11T16:08:05.345Z,18.23
2018-04-11T16:10:08.170Z,18.95
2018-04-11T16:12:10.986Z,11.95
2018-04-11T16:14:13.766Z,14.70
2018-04-11T16:16:16.567Z,17.10
2018-04-11T16:18:19.541Z,19.35
2018-04-11T16:20:22.347Z,15.32
2018-04-11T16:22:25.170Z,12.23
2018-04-11T16:24:28.089Z,12.98
2018-04-11T16:26:30.907Z,14.43
2018-04-11T16:28:33.759Z,14.38
2018-04-11T16:30:36.697Z,13.80
2018-04-11T16:32:39.504Z,13.75
2018-04-11T16:34:42.281Z,15.65
2018-04-11T16:36:45.093Z,12.15
2018-04-11T16:38:48.060Z,12.52
2018-04-11T16:40:50.853Z,17.48
2018-04-11T16:42:53.678Z,11.30
2018-04-11T16:44:56.469Z,15.95
2018-04-11T16:46:59.302Z,12.32
2018-04-11T16:49:02.122Z,14.85
2018-04-11T16:51:04.945Z,14.32
2018-04-11T16:53:07.766Z,15.65
2018-04-11T16:55:10.646Z,13.32
2018-04-11T16:57:13.487Z,11.73
2018-04-11T16:59:16.326Z,14.80
2018-04-11T17:01:19.132Z,12.40
2018-04-11T17:03:21.967Z,12.63
2018-04-11T17:05:24.741Z,10.45
2018-04-11T17:07:27.540Z,11.45
2018-04-11T17:09:30.334Z,12.63
2018-04-11T17:11:33.175Z,14.57
2018-04-11T17:13:35.984Z,14.18
2018-04-11T17:15:38.782Z,15.73
2018-04-11T17:17:41.591Z,18.62
2018-04-11T17:19:44.412Z,14.65
2018-04-11T17:21:53.415Z,14.02
2018-04-11T17:24:02.460Z,12.60
2018-04-11T17:26:11.263Z,13.38
2018-04-11T17:28:20.177Z,14.95
2018-04-11T17:30:29.050Z,16.67
2018-04-11T17:32:31.854Z,12.32
2018-04-11T17:34:34.621Z,17.73
2018-04-11T17:36:37.377Z,17.33
2018-04-11T17:38:40.191Z,14.60
2018-04-11T17:40:43.030Z,17.73
2018-04-11T17:42:45.826Z,55.30
2018-04-11T17:44:48.650Z,18.15
2018-04-11T17:46:51.458Z,21.17
2018-04-11T17:48:54.261Z,15.25
2018-04-11T17:50:57.075Z,16.25
2018-04-11T17:52:59.924Z,16.05
2018-04-11T17:55:02.681Z,15.25
2018-04-11T17:57:05.470Z,18.85
2018-04-11T17:59:08.383Z,15.40
2018-04-11T18:01:11.190Z,13.55
2018-04-11T18:03:13.987Z,16.25
2018-04-11T18:05:16.767Z,20.85
2018-04-11T18:07:19.579Z,11.65
2018-04-11T18:09:22.387Z,15.27
2018-04-11T18:11:25.400Z,12.55
2018-04-11T18:13:28.219Z,16.65
2018-04-11T18:15:31.072Z,14.15
2018-04-11T18:17:33.849Z,18.15
2018-04-11T18:19:36.638Z,16.60
2018-04-11T18:21:39.405Z,14.32
2018-04-11T18:23:42.195Z,12.90
2018-04-11T18:25:45.028Z,16.60
2018-04-11T18:27:48.055Z,20.37
2018-04-11T18:29:50.888Z,19.65
2018-04-11T18:31:53.736Z,21.90
2018-04-11T18:33:56.521Z,21.17
2018-04-11T18:35:59.342Z,15.55
2018-04-11T18:38:02.247Z,16.15
2018-04-11T18:40:05.069Z,26.98
2018-04-11T18:42:07.933Z,19.50
2018-04-11T18:44:10.890Z,17.12
2018-04-11T18:46:13.799Z,22.30
2018-04-11T18:48:16.626Z,16.45
2018-04-11T18:50:19.462Z,22.08
2018-04-11T18:52:22.284Z,14.32
2018-04-11T18:54:25.092Z,17.37
2018-04-11T18:56:27.913Z,18.83
2018-04-11T18:58:30.779Z,18.35
2018-04-11T19:00:33.587Z,19.73
2018-04-11T19:02:36.402Z,17.67
2018-04-11T19:04:39.180Z,22.60
2018-04-11T19:06:41.972Z,20.65
2018-04-11T19:08:44.789Z,22.45
2018-04-11T19:10:47.587Z,19.85
2018-04-11T19:12:50.589Z,24.80
2018-04-11T19:14:53.386Z,18.40
2018-04-11T19:16:56.161Z,17.85
2018-04-11T19:18:58.962Z,17.08
2018-04-11T19:21:01.843Z,18.27
2018-04-11T19:23:04.610Z,19.67
2018-04-11T19:25:07.465Z,18.33
2018-04-11T19:27:10.265Z,16.33
2018-04-11T19:29:13.068Z,17.80
2018-04-11T19:31:15.878Z,18.48
2018-04-11T19:33:18.712Z,23.10
2018-04-11T19:35:21.492Z,13.45
2018-04-11T19:37:24.331Z,16.75
2018-04-11T19:39:27.240Z,16.55
2018-04-11T19:41:30.110Z,20.10
2018-04-11T19:43:32.935Z,18.50
2018-04-11T19:45:35.999Z,19.95
2018-04-11T19:47:38.814Z,17.25
2018-04-11T19:49:41.601Z,15.35
2018-04-11T19:51:44.498Z,16.00
2018-04-11T19:53:47.297Z,17.23
2018-04-11T19:55:50.128Z,19.15
2018-04-11T19:57:52.967Z,16.50
2018-04-11T19:59:55.779Z,21.27
2018-04-11T20:02:01.659Z,16.45
2018-04-11T20:04:04.605Z,16.73
2018-04-11T20:06:07.404Z,18.85
2018-04-11T20:08:10.221Z,18.95
2018-04-11T20:10:13.106Z,15.98
2018-04-11T20:12:15.962Z,18.20
2018-04-11T20:14:18.882Z,15.75
2018-04-11T20:16:21.771Z,19.70
2018-04-11T20:18:24.625Z,19.65
2018-04-11T20:20:27.433Z,14.00
2018-04-11T20:22:30.247Z,13.85
2018-04-11T20:24:33.063Z,15.85
2018-04-11T20:26:35.872Z,20.27
2018-04-11T20:28:39.076Z,23.23
2018-04-11T20:30:41.995Z,17.77
2018-04-11T20:32:44.837Z,13.90
2018-04-11T20:34:48.373Z,15.57
2018-04-11T20:36:51.196Z,15.65
2018-04-11T20:38:54.025Z,24.98
2018-04-11T20:40:57.030Z,18.17
2018-04-11T20:42:59.977Z,12.90
2018-04-11T20:45:02.878Z,21.20
2018-04-11T20:47:05.718Z,18.45
2018-04-11T20:49:08.490Z,18.35
2018-04-11T20:51:11.688Z,17.75
2018-04-11T20:53:14.458Z,16.02
2018-04-11T20:55:19.357Z,18.85
2018-04-11T20:57:22.151Z,22.80
2018-04-11T20:59:24.974Z,21.27
2018-04-11T21:01:27.870Z,19.42
2018-04-11T21:03:30.692Z,15.30
2018-04-11T21:05:34.222Z,12.60
2018-04-11T21:10:00.642Z,12.50
2018-04-11T21:12:04.614Z,13.88
2018-04-11T21:14:17.629Z,14.77
2018-04-11T21:22:09.546Z,13.40
2018-04-11T21:24:12.371Z,15.02
2018-04-11T21:26:15.206Z,12.77
2018-04-11T21:28:18.031Z,15.98
2018-04-11T21:30:20.881Z,19.48
2018-04-11T21:32:23.690Z,16.33
2018-04-11T21:34:26.821Z,18.37
2018-04-11T21:36:29.686Z,13.88
2018-04-11T21:38:32.510Z,21.45
2018-04-11T21:40:35.322Z,16.30
2018-04-11T21:42:38.092Z,14.32
2018-04-11T21:44:40.890Z,12.60
2018-04-11T21:46:43.906Z,15.27
2018-04-11T21:48:46.739Z,13.98
2018-04-11T21:50:49.578Z,13.65
2018-04-11T21:52:52.380Z,15.23
2018-04-11T21:54:55.202Z,13.05
2018-04-11T21:56:58.011Z,20.58
2018-04-11T21:59:00.813Z,21.50
2018-04-11T22:01:03.594Z,13.02
2018-04-11T22:03:06.339Z,10.95
2018-04-11T22:05:09.181Z,18.87
2018-04-11T22:07:12.002Z,14.40
2018-04-11T22:09:14.771Z,12.37
2018-04-11T22:11:17.565Z,13.98
2018-04-11T22:13:20.363Z,17.98
2018-04-11T22:15:23.142Z,14.35
2018-04-11T22:17:25.961Z,18.58
2018-04-11T22:19:28.801Z,16.75
2018-04-11T22:21:31.606Z,12.18
2018-04-11T22:23:34.445Z,11.98
2018-04-11T22:25:37.243Z,12.93
2018-04-11T22:27:40.060Z,16.12
2018-04-11T22:29:42.914Z,15.77
2018-04-11T22:31:45.797Z,15.00
2018-04-11T22:33:48.624Z,15.00
2018-04-11T22:35:51.426Z,16.85
2018-04-11T22:37:54.239Z,13.65
2018-04-11T22:39:57.049Z,16.12
2018-04-11T22:41:59.885Z,14.73
2018-04-11T22:44:02.776Z,16.87
2018-04-11T22:46:05.641Z,17.20
2018-04-11T22:48:08.445Z,16.42
2018-04-11T22:50:11.256Z,22.92
2018-04-11T22:52:14.143Z,18.05
2018-04-11T22:54:16.944Z,12.77
2018-04-11T22:56:19.790Z,12.88
2018-04-11T22:58:22.563Z,13.80
2018-04-11T23:00:25.348Z,18.30
2018-04-11T23:02:28.132Z,17.92
2018-04-11T23:04:30.907Z,14.90
2018-04-11T23:06:33.669Z,12.75
2018-04-11T23:08:36.473Z,15.95
2018-04-11T23:10:39.282Z,15.63
2018-04-11T23:12:42.109Z,14.73
2018-04-11T23:14:45.055Z,13.65
2018-04-11T23:16:47.893Z,11.15
2018-04-11T23:18:52.183Z,19.77
2018-04-11T23:20:55.265Z,15.73
2018-04-11T23:22:58.562Z,15.30
2018-04-11T23:25:01.355Z,11.43
2018-04-11T23:27:04.164Z,15.30
2018-04-11T23:29:06.954Z,20.23
2018-04-11T23:31:10.952Z,15.63
2018-04-11T23:33:13.773Z,15.85
2018-04-11T23:35:16.585Z,15.00
2018-04-11T23:37:19.394Z,14.32
2018-04-11T23:39:22.353Z,14.50
2018-04-11T23:41:25.169Z,13.38
2018-04-11T23:43:28.027Z,15.48
2018-04-11T23:45:30.891Z,15.98
2018-04-11T23:47:33.688Z,16.02
2018-04-11T23:49:36.470Z,14.40
2018-04-11T23:51:39.394Z,19.20
2018-04-11T23:53:42.151Z,16.52
2018-04-11T23:55:44.894Z,14.65
2018-04-11T23:57:47.673Z,21.98
2018-04-11T23:59:50.415Z,15.75
